createdAt,value
2018-08-11T00:00:37.162Z,28.80
2018-08-11T00:03:06.132Z,28.80
2018-08-11T00:05:34.557Z,28.70
2018-08-11T00:08:03.523Z,28.70
2018-08-11T00:10:31.976Z,28.80
2018-08-11T00:13:00.424Z,28.70
2018-08-11T00:15:28.880Z,28.70
2018-08-11T00:17:57.306Z,28.80
2018-08-11T00:20:27.337Z,28.70
2018-08-11T00:22:55.792Z,28.70
2018-08-11T00:25:24.237Z,28.70
2018-08-11T00:27:52.673Z,28.60
2018-08-11T00:30:21.507Z,28.70
2018-08-11T00:32:50.260Z,28.60
2018-08-11T00:35:18.750Z,28.70
2018-08-11T00:37:47.198Z,28.70
2018-08-11T00:40:17.241Z,28.60
2018-08-11T00:45:37.099Z,28.50
2018-08-11T00:48:06.064Z,28.60
2018-08-11T00:50:36.575Z,28.70
2018-08-11T00:53:05.972Z,28.70
2018-08-11T00:55:34.416Z,28.50
2018-08-11T00:58:02.877Z,28.60
2018-08-11T01:00:31.316Z,28.60
2018-08-11T01:02:59.981Z,28.60
2018-08-11T01:05:28.409Z,28.60
2018-08-11T01:07:57.024Z,28.60
2018-08-11T01:10:25.481Z,28.60
2018-08-11T01:12:53.921Z,28.70
2018-08-11T01:15:23.133Z,28.60
2018-08-11T01:17:52.136Z,28.60
2018-08-11T01:20:20.628Z,28.50
2018-08-11T01:22:49.736Z,28.60
2018-08-11T01:25:18.186Z,28.50
2018-08-11T01:27:46.645Z,28.60
2018-08-11T01:30:17.892Z,28.60
2018-08-11T01:32:46.403Z,28.60
2018-08-11T01:35:14.857Z,28.60
2018-08-11T01:37:44.302Z,28.60
2018-08-11T01:40:13.865Z,28.60
2018-08-11T01:42:43.508Z,28.50
2018-08-11T01:45:12.805Z,28.50
2018-08-11T01:47:41.593Z,28.50
2018-08-11T01:50:11.409Z,28.60
2018-08-11T01:52:41.017Z,28.50
2018-08-11T01:55:10.495Z,28.50
2018-08-11T01:57:38.921Z,28.50
2018-08-11T02:00:09.227Z,28.60
2018-08-11T02:02:37.926Z,28.50
2018-08-11T02:05:06.820Z,28.50
2018-08-11T02:07:35.402Z,28.50
2018-08-11T02:10:04.731Z,28.50
2018-08-11T02:12:33.179Z,28.50
2018-08-11T02:15:01.602Z,28.40
2018-08-11T02:17:30.115Z,28.50
2018-08-11T02:19:58.626Z,28.50
2018-08-11T02:22:27.047Z,28.60
2018-08-11T02:24:55.466Z,28.50
2018-08-11T02:27:23.889Z,28.50
2018-08-11T02:29:52.314Z,28.50
2018-08-11T02:32:20.713Z,28.50
2018-08-11T02:34:49.136Z,28.40
2018-08-11T02:37:17.771Z,28.50
2018-08-11T02:39:46.193Z,28.40
2018-08-11T02:42:14.621Z,28.40
2018-08-11T02:44:43.047Z,28.40
2018-08-11T02:47:11.492Z,28.40
2018-08-11T02:49:40.069Z,28.50
2018-08-11T02:52:08.604Z,28.50
2018-08-11T02:54:37.048Z,28.40
2018-08-11T02:57:05.525Z,28.40
2018-08-11T02:59:33.947Z,28.40
2018-08-11T03:02:02.589Z,28.40
2018-08-11T03:04:31.008Z,28.40
2018-08-11T03:06:59.454Z,28.40
2018-08-11T03:09:28.021Z,28.40
2018-08-11T03:11:56.466Z,28.40
2018-08-11T03:14:24.916Z,28.40
2018-08-11T03:16:53.341Z,28.40
2018-08-11T03:19:21.843Z,28.50
2018-08-11T03:21:50.274Z,28.40
2018-08-11T03:24:18.693Z,28.50
2018-08-11T03:26:47.122Z,28.50
2018-08-11T03:29:15.576Z,28.50
2018-08-11T03:34:34.730Z,28.30
2018-08-11T03:37:03.135Z,28.40
2018-08-11T03:39:31.539Z,28.40
2018-08-11T03:41:59.966Z,28.30
2018-08-11T03:44:28.393Z,28.40
2018-08-11T03:46:56.797Z,28.40
2018-08-11T03:49:25.296Z,28.40
2018-08-11T03:51:53.717Z,28.40
2018-08-11T03:54:22.137Z,28.40
2018-08-11T03:56:50.554Z,28.50
2018-08-11T03:59:19.007Z,28.40
2018-08-11T04:01:47.423Z,28.40
2018-08-11T04:04:15.918Z,28.40
2018-08-11T04:06:44.569Z,28.40
2018-08-11T04:09:12.959Z,28.30
2018-08-11T04:11:41.368Z,28.30
2018-08-11T04:14:09.800Z,28.40
2018-08-11T04:16:38.478Z,28.40
2018-08-11T04:19:06.965Z,28.30
2018-08-11T04:21:35.398Z,28.30
2018-08-11T04:24:03.932Z,28.30
2018-08-11T04:26:32.379Z,28.30
2018-08-11T04:29:00.822Z,28.30
2018-08-11T04:31:29.417Z,28.30
2018-08-11T04:33:58.008Z,28.40
2018-08-11T04:36:26.458Z,28.40
2018-08-11T04:38:54.914Z,28.30
2018-08-11T04:41:23.435Z,28.30
2018-08-11T04:43:51.874Z,28.30
2018-08-11T04:46:20.321Z,28.30
2018-08-11T04:48:48.774Z,28.30
2018-08-11T04:51:17.227Z,28.30
2018-08-11T04:53:45.746Z,28.30
2018-08-11T04:56:14.381Z,28.30
2018-08-11T04:58:42.899Z,28.30
2018-08-11T05:01:11.358Z,28.40
2018-08-11T05:03:39.810Z,28.30
2018-08-11T05:06:08.410Z,28.30
2018-08-11T05:08:36.866Z,28.30
2018-08-11T05:11:05.337Z,28.30
2018-08-11T05:13:33.893Z,28.20
2018-08-11T05:16:02.355Z,28.20
2018-08-11T05:18:30.854Z,28.20
2018-08-11T05:20:59.325Z,28.30
2018-08-11T05:23:28.047Z,28.20
2018-08-11T05:25:56.487Z,28.20
2018-08-11T05:28:24.950Z,28.10
2018-08-11T05:30:53.375Z,28.10
2018-08-11T05:33:21.871Z,28.20
2018-08-11T05:35:50.318Z,28.20
2018-08-11T05:38:19.006Z,28.20
2018-08-11T05:40:47.469Z,28.20
2018-08-11T05:43:15.918Z,28.20
2018-08-11T05:45:44.396Z,28.20
2018-08-11T05:48:12.851Z,28.20
2018-08-11T05:50:41.292Z,28.20
2018-08-11T05:53:09.755Z,28.20
2018-08-11T05:55:38.281Z,28.20
2018-08-11T05:58:06.733Z,28.30
2018-08-11T06:00:35.357Z,28.30
2018-08-11T06:03:03.821Z,28.30
2018-08-11T06:05:32.240Z,28.30
2018-08-11T06:08:00.953Z,28.30
2018-08-11T06:10:29.429Z,28.30
2018-08-11T06:12:57.884Z,28.30
2018-08-11T06:15:26.304Z,28.40
2018-08-11T06:17:54.775Z,28.40
2018-08-11T06:20:23.229Z,28.40
2018-08-11T06:22:51.663Z,28.40
2018-08-11T06:25:20.101Z,28.40
2018-08-11T06:27:48.703Z,28.40
2018-08-11T06:30:17.166Z,28.40
2018-08-11T06:32:45.799Z,28.40
2018-08-11T06:35:14.267Z,28.40
2018-08-11T06:37:42.810Z,28.40
2018-08-11T06:40:11.250Z,28.40
2018-08-11T06:42:39.777Z,28.50
2018-08-11T06:45:08.798Z,28.50
2018-08-11T06:47:37.269Z,28.50
2018-08-11T06:50:05.955Z,28.50
2018-08-11T06:52:34.410Z,28.50
2018-08-11T06:55:03.073Z,28.60
2018-08-11T06:57:31.758Z,28.60
2018-08-11T07:00:00.415Z,28.60
2018-08-11T07:02:29.135Z,28.60
2018-08-11T07:04:57.574Z,28.60
2018-08-11T07:07:26.036Z,28.60
2018-08-11T07:09:54.481Z,28.60
2018-08-11T07:12:22.955Z,28.70
2018-08-11T07:14:51.383Z,28.60
2018-08-11T07:17:20.057Z,28.60
2018-08-11T07:19:48.608Z,28.70
2018-08-11T07:22:17.065Z,28.70
2018-08-11T07:24:45.537Z,28.70
2018-08-11T07:27:14.023Z,28.80
2018-08-11T07:29:42.620Z,28.80
2018-08-11T07:32:11.318Z,28.90
2018-08-11T07:34:40.201Z,29.00
2018-08-11T07:37:08.665Z,29.20
2018-08-11T07:39:41.025Z,29.30
2018-08-11T07:42:09.479Z,29.40
2018-08-11T07:44:37.918Z,29.10
2018-08-11T07:47:06.363Z,29.00
2018-08-11T07:49:34.803Z,28.90
2018-08-11T07:52:03.223Z,29.00
2018-08-11T07:54:31.788Z,29.00
2018-08-11T07:57:00.389Z,28.90
2018-08-11T07:59:29.038Z,28.90
2018-08-11T08:01:57.467Z,28.90
2018-08-11T08:04:25.888Z,28.90
2018-08-11T08:06:54.669Z,28.90
2018-08-11T08:09:23.406Z,29.00
2018-08-11T08:11:51.985Z,28.90
2018-08-11T08:14:20.447Z,28.90
2018-08-11T08:16:48.936Z,28.90
2018-08-11T08:19:17.445Z,28.90
2018-08-11T08:21:45.940Z,29.00
2018-08-11T08:24:14.901Z,29.00
2018-08-11T08:26:44.666Z,29.00
2018-08-11T08:29:15.019Z,29.00
2018-08-11T08:31:44.326Z,29.00
2018-08-11T08:34:13.507Z,29.00
2018-08-11T08:36:42.771Z,29.00
2018-08-11T08:39:13.149Z,29.00
2018-08-11T08:41:42.602Z,29.00
2018-08-11T08:44:12.223Z,29.00
2018-08-11T08:46:41.465Z,29.00
2018-08-11T08:49:10.529Z,29.00
2018-08-11T08:51:39.647Z,29.00
2018-08-11T08:54:09.040Z,29.00
2018-08-11T08:56:38.168Z,29.00
2018-08-11T08:59:07.573Z,29.00
2018-08-11T09:01:36.997Z,29.00
2018-08-11T09:04:05.920Z,29.00
2018-08-11T09:06:34.654Z,29.00
2018-08-11T09:09:04.597Z,29.10
2018-08-11T09:11:33.643Z,29.10
2018-08-11T09:14:02.963Z,29.10
2018-08-11T09:16:32.146Z,29.10
2018-08-11T09:19:01.220Z,29.10
2018-08-11T09:21:30.682Z,29.10
2018-08-11T09:23:59.691Z,29.10
2018-08-11T09:26:28.824Z,29.20
2018-08-11T09:28:58.001Z,29.10
2018-08-11T09:31:27.155Z,29.10
2018-08-11T09:33:56.467Z,29.20
2018-08-11T09:36:25.458Z,29.20
2018-08-11T09:38:54.732Z,29.20
2018-08-11T09:41:23.919Z,29.20
2018-08-11T09:43:53.522Z,29.20
2018-08-11T09:46:22.851Z,29.20
2018-08-11T09:48:52.036Z,29.20
2018-08-11T09:51:21.119Z,29.20
2018-08-11T09:53:50.377Z,29.20
2018-08-11T09:56:19.672Z,29.20
2018-08-11T09:58:49.828Z,29.20
2018-08-11T10:01:24.039Z,29.20
2018-08-11T10:03:53.174Z,29.20
2018-08-11T10:06:22.563Z,29.20
2018-08-11T10:08:52.300Z,29.20
2018-08-11T10:11:21.557Z,29.20
2018-08-11T10:13:50.753Z,29.30
2018-08-11T10:16:20.217Z,29.30
2018-08-11T10:18:49.912Z,29.30
2018-08-11T10:21:19.194Z,29.30
2018-08-11T10:23:48.321Z,29.30
2018-08-11T10:26:17.697Z,29.30
2018-08-11T10:28:47.001Z,29.30
2018-08-11T10:31:16.733Z,29.30
2018-08-11T10:33:46.018Z,29.30
2018-08-11T10:36:15.558Z,29.30
2018-08-11T10:38:44.929Z,29.30
2018-08-11T10:41:14.359Z,29.30
2018-08-11T10:43:43.557Z,29.30
2018-08-11T10:46:12.993Z,29.30
2018-08-11T10:48:42.238Z,29.30
2018-08-11T10:51:11.416Z,29.30
2018-08-11T10:53:40.628Z,29.30
2018-08-11T10:56:09.832Z,29.40
2018-08-11T10:58:39.055Z,29.30
2018-08-11T11:01:08.540Z,29.30
2018-08-11T11:03:37.933Z,29.30
2018-08-11T11:06:07.272Z,29.30
2018-08-11T11:08:36.750Z,29.40
2018-08-11T11:11:05.869Z,29.40
2018-08-11T11:13:34.525Z,29.40
2018-08-11T11:16:04.073Z,29.40
2018-08-11T11:18:33.923Z,29.50
2018-08-11T11:21:03.288Z,29.40
2018-08-11T11:23:31.992Z,29.40
2018-08-11T11:26:00.461Z,29.40
2018-08-11T11:28:29.158Z,29.50
2018-08-11T11:30:57.876Z,29.40
2018-08-11T11:33:27.160Z,29.50
2018-08-11T11:35:56.311Z,29.50
2018-08-11T11:38:25.423Z,29.60
2018-08-11T11:40:54.607Z,29.70
2018-08-11T11:43:24.035Z,29.70
2018-08-11T11:45:53.283Z,29.70
2018-08-11T11:48:22.478Z,29.60
2018-08-11T11:50:51.595Z,29.60
2018-08-11T11:53:20.838Z,29.60
2018-08-11T11:55:49.987Z,29.50
2018-08-11T11:58:19.098Z,29.50
2018-08-11T12:00:48.439Z,29.50
2018-08-11T12:03:17.843Z,29.40
2018-08-11T12:05:46.964Z,29.40
2018-08-11T12:08:16.176Z,29.40
2018-08-11T12:10:45.385Z,29.30
2018-08-11T12:13:18.717Z,29.30
2018-08-11T12:15:50.605Z,29.30
2018-08-11T12:18:19.741Z,29.30
2018-08-11T12:20:49.055Z,29.30
2018-08-11T12:23:18.183Z,29.30
2018-08-11T12:25:47.206Z,29.30
2018-08-11T12:28:16.500Z,29.30
2018-08-11T12:30:45.565Z,29.30
2018-08-11T12:33:15.362Z,29.30
2018-08-11T12:35:45.433Z,29.30
2018-08-11T12:38:15.101Z,29.40
2018-08-11T12:40:44.237Z,29.40
2018-08-11T12:43:14.068Z,29.40
2018-08-11T12:45:44.206Z,29.40
2018-08-11T12:48:14.501Z,29.50
2018-08-11T12:50:44.066Z,29.50
2018-08-11T12:53:13.946Z,29.50
2018-08-11T12:55:43.255Z,29.50
2018-08-11T12:58:12.885Z,29.50
2018-08-11T13:00:46.111Z,29.40
2018-08-11T13:03:18.625Z,29.40
2018-08-11T13:05:50.582Z,29.40
2018-08-11T13:08:21.155Z,29.40
2018-08-11T13:10:50.625Z,29.40
2018-08-11T13:13:19.814Z,29.40
2018-08-11T13:15:50.798Z,29.30
2018-08-11T13:18:21.303Z,29.30
2018-08-11T13:20:51.036Z,29.30
2018-08-11T13:23:21.469Z,29.30
2018-08-11T13:25:50.716Z,29.30
2018-08-11T13:28:19.986Z,29.30
2018-08-11T13:30:53.870Z,29.30
2018-08-11T13:33:23.175Z,29.30
2018-08-11T13:35:52.340Z,29.30
2018-08-11T13:38:22.290Z,29.40
2018-08-11T13:40:51.352Z,29.40
2018-08-11T13:43:20.640Z,29.40
2018-08-11T13:45:49.789Z,29.50
2018-08-11T13:51:09.090Z,29.40
2018-08-11T13:53:37.549Z,29.40
2018-08-11T13:56:06.663Z,29.50
2018-08-11T13:58:35.966Z,29.50
2018-08-11T14:01:05.488Z,29.40
2018-08-11T14:03:34.657Z,29.40
2018-08-11T14:06:03.733Z,29.40
2018-08-11T14:08:32.887Z,29.40
2018-08-11T14:11:02.050Z,29.40
2018-08-11T14:13:31.364Z,29.40
2018-08-11T14:16:00.846Z,29.40
2018-08-11T14:18:30.474Z,29.40
2018-08-11T14:20:59.747Z,29.40
2018-08-11T14:23:28.872Z,29.30
2018-08-11T14:25:58.168Z,29.30
2018-08-11T14:28:27.766Z,29.30
2018-08-11T14:30:56.815Z,29.30
2018-08-11T14:33:26.102Z,29.30
2018-08-11T14:35:57.021Z,29.30
2018-08-11T14:38:26.038Z,29.30
2018-08-11T14:40:55.152Z,29.30
2018-08-11T14:43:24.459Z,29.30
2018-08-11T14:45:53.856Z,29.30
2018-08-11T14:48:24.040Z,29.30
2018-08-11T14:50:53.081Z,29.30
2018-08-11T14:53:22.382Z,29.30
2018-08-11T14:55:51.605Z,29.30
2018-08-11T15:01:11.588Z,29.20
2018-08-11T15:03:43.030Z,29.20
2018-08-11T15:06:12.167Z,29.20
2018-08-11T15:08:41.578Z,29.20
2018-08-11T15:11:10.194Z,29.30
2018-08-11T15:13:38.923Z,29.30
2018-08-11T15:16:07.426Z,29.30
2018-08-11T15:18:36.176Z,29.30
2018-08-11T15:21:05.167Z,29.30
2018-08-11T15:23:34.423Z,29.30
2018-08-11T15:26:03.527Z,29.30
2018-08-11T15:28:32.830Z,29.30
2018-08-11T15:31:01.968Z,29.30
2018-08-11T15:33:31.281Z,29.20
2018-08-11T15:36:00.122Z,29.20
2018-08-11T15:38:29.182Z,29.20
2018-08-11T15:40:58.281Z,29.20
2018-08-11T15:43:27.457Z,29.20
2018-08-11T15:45:56.947Z,29.20
2018-08-11T15:48:26.137Z,29.20
2018-08-11T15:50:55.218Z,29.20
2018-08-11T15:53:24.384Z,29.20
2018-08-11T15:55:53.624Z,29.20
2018-08-11T15:58:27.094Z,29.20
2018-08-11T16:00:56.531Z,29.20
2018-08-11T16:03:25.676Z,29.10
2018-08-11T16:05:54.838Z,29.10
2018-08-11T16:08:28.635Z,29.10
2018-08-11T16:10:57.891Z,29.10
2018-08-11T16:13:26.950Z,29.10
2018-08-11T16:15:56.132Z,29.10
2018-08-11T16:18:25.306Z,29.10
2018-08-11T16:20:54.613Z,29.10
2018-08-11T16:23:23.788Z,29.10
2018-08-11T16:25:52.948Z,29.10
2018-08-11T16:28:22.220Z,29.10
2018-08-11T16:30:51.547Z,29.10
2018-08-11T16:33:20.707Z,29.10
2018-08-11T16:35:50.018Z,29.10
2018-08-11T16:38:19.422Z,29.10
2018-08-11T16:40:48.599Z,29.10
2018-08-11T16:43:17.766Z,29.10
2018-08-11T16:45:47.064Z,29.10
2018-08-11T16:48:16.202Z,29.00
2018-08-11T16:50:45.284Z,29.00
2018-08-11T16:53:13.771Z,29.00
2018-08-11T16:55:42.758Z,29.00
2018-08-11T16:58:11.792Z,29.00
2018-08-11T17:00:40.847Z,28.90
2018-08-11T17:03:09.909Z,28.90
2018-08-11T17:05:39.196Z,28.90
2018-08-11T17:08:08.379Z,28.80
2018-08-11T17:10:37.562Z,28.70
2018-08-11T17:13:06.539Z,28.70
2018-08-11T17:15:35.810Z,28.70
2018-08-11T17:18:04.989Z,28.60
2018-08-11T17:20:33.959Z,28.60
2018-08-11T17:23:03.159Z,28.60
2018-08-11T17:25:32.330Z,28.60
2018-08-11T17:28:01.554Z,28.60
2018-08-11T17:30:30.770Z,28.60
2018-08-11T17:32:59.920Z,28.60
2018-08-11T17:35:29.040Z,28.50
2018-08-11T17:37:58.029Z,28.50
2018-08-11T17:40:27.448Z,28.50
2018-08-11T17:42:56.685Z,28.50
2018-08-11T17:45:26.689Z,28.50
2018-08-11T17:47:56.189Z,28.50
2018-08-11T17:50:25.368Z,28.50
2018-08-11T17:52:54.577Z,28.50
2018-08-11T17:55:24.163Z,28.50
2018-08-11T17:57:53.300Z,28.40
2018-08-11T18:00:22.699Z,28.40
2018-08-11T18:02:52.099Z,28.50
2018-08-11T18:05:20.519Z,28.40
2018-08-11T18:07:49.761Z,28.40
2018-08-11T18:10:18.853Z,28.40
2018-08-11T18:12:48.301Z,28.40
2018-08-11T18:15:17.458Z,28.40
2018-08-11T18:17:46.643Z,28.40
2018-08-11T18:20:15.888Z,28.40
2018-08-11T18:22:45.144Z,28.40
2018-08-11T18:25:14.877Z,28.40
2018-08-11T18:27:44.034Z,28.40
2018-08-11T18:30:13.412Z,28.40
2018-08-11T18:32:42.410Z,28.40
2018-08-11T18:35:13.816Z,28.60
2018-08-11T18:37:43.086Z,28.70
2018-08-11T18:40:12.473Z,28.70
2018-08-11T18:42:41.805Z,28.70
2018-08-11T18:45:10.802Z,28.50
2018-08-11T18:47:40.262Z,28.50
2018-08-11T18:50:09.490Z,28.40
2018-08-11T18:52:38.728Z,28.50
2018-08-11T18:55:08.672Z,28.40
2018-08-11T18:57:37.795Z,28.40
2018-08-11T19:00:16.596Z,28.40
2018-08-11T19:02:46.192Z,28.40
2018-08-11T19:05:15.422Z,28.40
2018-08-11T19:07:44.792Z,28.40
2018-08-11T19:10:14.432Z,28.30
2018-08-11T19:12:43.045Z,28.40
2018-08-11T19:15:13.595Z,28.40
2018-08-11T19:17:42.825Z,28.40
2018-08-11T19:20:13.776Z,28.40
2018-08-11T19:22:42.319Z,28.40
2018-08-11T19:25:11.690Z,28.40
2018-08-11T19:27:40.179Z,28.30
2018-08-11T19:30:10.146Z,28.30
2018-08-11T19:32:39.665Z,28.30
2018-08-11T19:35:08.868Z,28.30
2018-08-11T19:37:38.428Z,28.20
2018-08-11T19:40:08.605Z,28.30
2018-08-11T19:42:37.830Z,28.30
2018-08-11T19:45:09.156Z,28.20
2018-08-11T19:47:38.207Z,28.30
2018-08-11T19:50:08.290Z,28.20
2018-08-11T19:52:37.670Z,28.20
2018-08-11T19:55:07.485Z,28.20
2018-08-11T19:57:36.552Z,28.20
2018-08-11T20:00:09.846Z,28.20
2018-08-11T20:02:39.041Z,28.20
2018-08-11T20:05:08.536Z,28.20
2018-08-11T20:07:37.723Z,28.20
2018-08-11T20:10:07.424Z,28.20
2018-08-11T20:12:36.865Z,28.20
2018-08-11T20:15:07.597Z,28.10
2018-08-11T20:17:36.151Z,28.20
2018-08-11T20:20:05.762Z,28.10
2018-08-11T20:22:34.213Z,28.20
2018-08-11T20:25:02.707Z,28.20
2018-08-11T20:27:31.318Z,28.20
2018-08-11T20:30:00.026Z,28.10
2018-08-11T20:35:18.930Z,28.00
2018-08-11T20:37:47.412Z,28.00
2018-08-11T20:40:15.875Z,28.00
2018-08-11T20:42:44.326Z,28.10
2018-08-11T20:45:12.782Z,28.10
2018-08-11T20:47:41.230Z,28.00
2018-08-11T20:50:09.798Z,28.00
2018-08-11T20:52:38.245Z,28.00
2018-08-11T20:55:07.756Z,28.10
2018-08-11T20:57:36.511Z,28.10
2018-08-11T21:00:08.780Z,28.00
2018-08-11T21:02:37.359Z,28.00
2018-08-11T21:05:09.474Z,28.00
2018-08-11T21:07:38.674Z,28.00
2018-08-11T21:10:08.990Z,28.00
2018-08-11T21:12:37.465Z,28.00
2018-08-11T21:15:06.586Z,28.00
2018-08-11T21:17:35.024Z,27.90
2018-08-11T21:20:03.525Z,28.00
2018-08-11T21:22:31.991Z,28.00
2018-08-11T21:25:00.607Z,28.00
2018-08-11T21:27:29.154Z,28.00
2018-08-11T21:29:57.679Z,28.00
2018-08-11T21:32:26.271Z,27.90
2018-08-11T21:34:54.797Z,27.90
2018-08-11T21:37:23.293Z,27.90
2018-08-11T21:39:51.738Z,27.90
2018-08-11T21:48:06.547Z,28.00
2018-08-11T21:50:34.977Z,27.90
2018-08-11T21:53:03.421Z,27.90
2018-08-11T21:55:31.853Z,27.90
2018-08-11T21:58:00.328Z,27.90
2018-08-11T22:00:31.044Z,27.90
2018-08-11T22:02:59.985Z,27.80
2018-08-11T22:05:28.828Z,27.80
2018-08-11T22:07:58.357Z,27.80
2018-08-11T22:10:27.141Z,27.80
2018-08-11T22:12:55.747Z,27.80
2018-08-11T22:15:24.206Z,27.80
2018-08-11T22:17:52.671Z,27.80
2018-08-11T22:20:21.140Z,27.90
2018-08-11T22:22:49.575Z,27.90
2018-08-11T22:25:18.006Z,27.80
2018-08-11T22:27:46.699Z,27.90
2018-08-11T22:30:15.126Z,27.90
2018-08-11T22:32:43.537Z,27.90
2018-08-11T22:35:12.711Z,27.90
2018-08-11T22:37:41.187Z,27.90
2018-08-11T22:40:09.613Z,27.90
2018-08-11T22:42:38.721Z,27.80
2018-08-11T22:45:09.969Z,27.80
2018-08-11T22:47:39.008Z,27.80
2018-08-11T22:50:09.037Z,27.80
2018-08-11T22:52:37.989Z,27.80
2018-08-11T22:55:06.769Z,27.80
2018-08-11T23:00:44.880Z,27.70
2018-08-11T23:03:13.301Z,27.70
2018-08-11T23:05:41.921Z,27.70
2018-08-11T23:08:10.350Z,27.70
2018-08-11T23:10:38.797Z,27.80
2018-08-11T23:13:07.237Z,27.70
2018-08-11T23:15:35.665Z,27.80
2018-08-11T23:18:04.244Z,27.80
2018-08-11T23:20:32.697Z,27.80
2018-08-11T23:23:01.178Z,27.90
2018-08-11T23:25:29.897Z,27.80
2018-08-11T23:27:58.333Z,27.80
2018-08-11T23:30:26.793Z,27.80
2018-08-11T23:32:55.223Z,27.90
2018-08-11T23:35:23.647Z,27.70
2018-08-11T23:37:52.072Z,27.80
2018-08-11T23:40:20.929Z,27.80
2018-08-11T23:42:49.366Z,27.80
2018-08-11T23:45:17.801Z,27.80
2018-08-11T23:47:54.489Z,27.80
2018-08-11T23:50:22.912Z,27.90
2018-08-11T23:52:51.334Z,27.70
2018-08-11T23:55:19.970Z,27.70
2018-08-11T23:57:48.395Z,27.70
